sensor_id;sensor_type;location;lat;lon;timestamp;P1;durP1;ratioP1;P2;durP2;ratioP2
67363;SDS011;54250;45.572;38.086;2022-10-18T00:01:51;1.05;;;0.57;;
67363;SDS011;54250;45.572;38.086;2022-10-18T00:04:17;0.88;;;0.80;;
67363;SDS011;54250;45.572;38.086;2022-10-18T00:06:43;1.85;;;1.10;;
67363;SDS011;54250;45.572;38.086;2022-10-18T00:09:09;0.68;;;0.68;;
67363;SDS011;54250;45.572;38.086;2022-10-18T00:11:35;4.65;;;0.77;;
67363;SDS011;54250;45.572;38.086;2022-10-18T00:14:02;2.20;;;0.77;;
67363;SDS011;54250;45.572;38.086;2022-10-18T00:16:29;0.73;;;0.60;;
67363;SDS011;54250;45.572;38.086;2022-10-18T00:18:55;3.67;;;0.82;;
67363;SDS011;54250;45.572;38.086;2022-10-18T00:21:21;1.35;;;1.17;;
67363;SDS011;54250;45.572;38.086;2022-10-18T00:23:49;3.58;;;0.70;;
67363;SDS011;54250;45.572;38.086;2022-10-18T00:26:20;0.85;;;0.80;;
67363;SDS011;54250;45.572;38.086;2022-10-18T00:28:49;2.10;;;1.38;;
67363;SDS011;54250;45.572;38.086;2022-10-18T00:31:24;0.68;;;0.68;;
67363;SDS011;54250;45.572;38.086;2022-10-18T00:33:53;8.38;;;0.93;;
67363;SDS011;54250;45.572;38.086;2022-10-18T00:36:24;3.45;;;1.42;;
67363;SDS011;54250;45.572;38.086;2022-10-18T00:38:52;1.65;;;0.95;;
67363;SDS011;54250;45.572;38.086;2022-10-18T00:41:22;0.88;;;0.73;;
67363;SDS011;54250;45.572;38.086;2022-10-18T00:43:55;0.40;;;0.40;;
67363;SDS011;54250;45.572;38.086;2022-10-18T00:46:27;3.33;;;0.90;;
67363;SDS011;54250;45.572;38.086;2022-10-18T00:48:56;1.15;;;0.98;;
67363;SDS011;54250;45.572;38.086;2022-10-18T00:51:27;1.55;;;1.30;;
67363;SDS011;54250;45.572;38.086;2022-10-18T00:53:57;5.60;;;1.50;;
67363;SDS011;54250;45.572;38.086;2022-10-18T00:56:23;1.20;;;0.82;;
67363;SDS011;54250;45.572;38.086;2022-10-18T00:58:49;0.82;;;0.80;;
67363;SDS011;54250;45.572;38.086;2022-10-18T01:01:16;0.82;;;0.80;;
67363;SDS011;54250;45.572;38.086;2022-10-18T01:03:42;1.38;;;1.02;;
67363;SDS011;54250;45.572;38.086;2022-10-18T01:06:08;1.42;;;1.10;;
67363;SDS011;54250;45.572;38.086;2022-10-18T01:11:34;1.50;;;1.40;;
67363;SDS011;54250;45.572;38.086;2022-10-18T01:17:23;1.45;;;1.08;;
67363;SDS011;54250;45.572;38.086;2022-10-18T01:22:49;1.20;;;1.05;;
67363;SDS011;54250;45.572;38.086;2022-10-18T01:28:27;1.30;;;1.17;;
67363;SDS011;54250;45.572;38.086;2022-10-18T01:31:07;2.17;;;1.20;;
67363;SDS011;54250;45.572;38.086;2022-10-18T01:33:46;1.83;;;1.50;;
67363;SDS011;54250;45.572;38.086;2022-10-18T01:36:36;1.70;;;1.00;;
67363;SDS011;54250;45.572;38.086;2022-10-18T01:39:07;14.75;;;1.65;;
67363;SDS011;54250;45.572;38.086;2022-10-18T01:41:40;7.82;;;1.17;;
67363;SDS011;54250;45.572;38.086;2022-10-18T01:44:11;0.80;;;0.80;;
67363;SDS011;54250;45.572;38.086;2022-10-18T01:46:40;2.65;;;1.10;;
67363;SDS011;54250;45.572;38.086;2022-10-18T01:49:08;2.00;;;1.30;;
67363;SDS011;54250;45.572;38.086;2022-10-18T01:51:34;5.43;;;1.05;;
67363;SDS011;54250;45.572;38.086;2022-10-18T01:54:00;15.02;;;1.42;;
67363;SDS011;54250;45.572;38.086;2022-10-18T02:05:02;1.38;;;1.05;;
67363;SDS011;54250;45.572;38.086;2022-10-18T02:13:18;2.03;;;1.08;;
67363;SDS011;54250;45.572;38.086;2022-10-18T02:15:47;9.93;;;1.48;;
67363;SDS011;54250;45.572;38.086;2022-10-18T02:18:27;1.85;;;1.20;;
67363;SDS011;54250;45.572;38.086;2022-10-18T02:20:58;2.00;;;1.05;;
67363;SDS011;54250;45.572;38.086;2022-10-18T02:23:27;1.95;;;0.95;;
67363;SDS011;54250;45.572;38.086;2022-10-18T02:25:53;1.15;;;1.05;;
67363;SDS011;54250;45.572;38.086;2022-10-18T02:28:19;4.43;;;1.02;;
67363;SDS011;54250;45.572;38.086;2022-10-18T02:30:49;8.38;;;1.30;;
67363;SDS011;54250;45.572;38.086;2022-10-18T02:33:32;1.08;;;0.98;;
67363;SDS011;54250;45.572;38.086;2022-10-18T02:36:12;1.73;;;1.13;;
67363;SDS011;54250;45.572;38.086;2022-10-18T02:38:42;1.08;;;0.65;;
67363;SDS011;54250;45.572;38.086;2022-10-18T02:41:11;3.72;;;1.48;;
67363;SDS011;54250;45.572;38.086;2022-10-18T02:43:37;0.85;;;0.70;;
67363;SDS011;54250;45.572;38.086;2022-10-18T02:46:03;3.40;;;0.90;;
67363;SDS011;54250;45.572;38.086;2022-10-18T02:48:30;3.35;;;1.65;;
67363;SDS011;54250;45.572;38.086;2022-10-18T02:50:56;4.63;;;1.85;;
67363;SDS011;54250;45.572;38.086;2022-10-18T02:53:22;2.08;;;1.60;;
67363;SDS011;54250;45.572;38.086;2022-10-18T02:55:48;1.75;;;1.10;;
67363;SDS011;54250;45.572;38.086;2022-10-18T02:58:14;1.25;;;0.85;;
67363;SDS011;54250;45.572;38.086;2022-10-18T03:00:40;3.03;;;1.33;;
67363;SDS011;54250;45.572;38.086;2022-10-18T03:03:06;1.10;;;0.80;;
67363;SDS011;54250;45.572;38.086;2022-10-18T03:05:32;2.30;;;2.03;;
67363;SDS011;54250;45.572;38.086;2022-10-18T03:07:58;2.22;;;0.90;;
67363;SDS011;54250;45.572;38.086;2022-10-18T03:10:24;1.75;;;0.93;;
67363;SDS011;54250;45.572;38.086;2022-10-18T03:12:50;0.80;;;0.80;;
67363;SDS011;54250;45.572;38.086;2022-10-18T03:15:16;2.25;;;1.25;;
67363;SDS011;54250;45.572;38.086;2022-10-18T03:17:42;1.55;;;1.27;;
67363;SDS011;54250;45.572;38.086;2022-10-18T03:20:08;0.93;;;0.82;;
67363;SDS011;54250;45.572;38.086;2022-10-18T03:22:34;2.97;;;1.63;;
67363;SDS011;54250;45.572;38.086;2022-10-18T03:25:00;1.83;;;1.15;;
67363;SDS011;54250;45.572;38.086;2022-10-18T03:27:26;1.27;;;1.15;;
67363;SDS011;54250;45.572;38.086;2022-10-18T03:29:52;1.48;;;0.95;;
67363;SDS011;54250;45.572;38.086;2022-10-18T03:32:18;2.00;;;1.52;;
67363;SDS011;54250;45.572;38.086;2022-10-18T03:34:44;1.10;;;1.00;;
67363;SDS011;54250;45.572;38.086;2022-10-18T03:37:11;1.42;;;1.13;;
67363;SDS011;54250;45.572;38.086;2022-10-18T03:39:37;3.88;;;2.75;;
67363;SDS011;54250;45.572;38.086;2022-10-18T03:42:03;7.55;;;3.15;;
67363;SDS011;54250;45.572;38.086;2022-10-18T03:44:29;2.55;;;2.13;;
67363;SDS011;54250;45.572;38.086;2022-10-18T03:46:55;3.28;;;1.92;;
67363;SDS011;54250;45.572;38.086;2022-10-18T03:49:21;4.47;;;1.48;;
67363;SDS011;54250;45.572;38.086;2022-10-18T03:51:47;2.42;;;2.00;;
67363;SDS011;54250;45.572;38.086;2022-10-18T03:54:13;0.95;;;0.90;;
67363;SDS011;54250;45.572;38.086;2022-10-18T03:56:39;1.05;;;0.98;;
67363;SDS011;54250;45.572;38.086;2022-10-18T03:59:05;1.50;;;1.02;;
67363;SDS011;54250;45.572;38.086;2022-10-18T04:01:31;18.38;;;2.53;;
67363;SDS011;54250;45.572;38.086;2022-10-18T04:03:57;1.77;;;1.40;;
67363;SDS011;54250;45.572;38.086;2022-10-18T04:06:23;4.82;;;1.55;;
67363;SDS011;54250;45.572;38.086;2022-10-18T04:08:49;7.15;;;1.98;;
67363;SDS011;54250;45.572;38.086;2022-10-18T04:11:16;2.20;;;1.40;;
67363;SDS011;54250;45.572;38.086;2022-10-18T04:13:41;2.20;;;1.20;;
67363;SDS011;54250;45.572;38.086;2022-10-18T04:16:08;2.20;;;1.30;;
67363;SDS011;54250;45.572;38.086;2022-10-18T04:18:34;19.02;;;1.42;;
67363;SDS011;54250;45.572;38.086;2022-10-18T04:21:00;1.65;;;1.27;;
67363;SDS011;54250;45.572;38.086;2022-10-18T04:23:26;8.57;;;1.40;;
67363;SDS011;54250;45.572;38.086;2022-10-18T04:25:52;3.95;;;1.67;;
67363;SDS011;54250;45.572;38.086;2022-10-18T04:28:18;1.08;;;0.98;;
67363;SDS011;54250;45.572;38.086;2022-10-18T04:30:48;1.02;;;0.93;;
67363;SDS011;54250;45.572;38.086;2022-10-18T04:33:17;3.35;;;1.45;;
67363;SDS011;54250;45.572;38.086;2022-10-18T04:35:44;1.15;;;1.00;;
67363;SDS011;54250;45.572;38.086;2022-10-18T04:38:10;2.72;;;1.50;;
67363;SDS011;54250;45.572;38.086;2022-10-18T04:40:38;2.88;;;1.63;;
67363;SDS011;54250;45.572;38.086;2022-10-18T04:43:04;1.08;;;1.00;;
67363;SDS011;54250;45.572;38.086;2022-10-18T04:45:30;8.25;;;1.80;;
67363;SDS011;54250;45.572;38.086;2022-10-18T04:47:56;1.77;;;1.10;;
67363;SDS011;54250;45.572;38.086;2022-10-18T04:50:22;1.48;;;1.27;;
67363;SDS011;54250;45.572;38.086;2022-10-18T04:52:50;3.58;;;1.88;;
67363;SDS011;54250;45.572;38.086;2022-10-18T04:55:17;1.98;;;1.40;;
67363;SDS011;54250;45.572;38.086;2022-10-18T04:57:44;2.20;;;1.58;;
67363;SDS011;54250;45.572;38.086;2022-10-18T05:00:10;2.95;;;1.30;;
67363;SDS011;54250;45.572;38.086;2022-10-18T05:02:37;1.65;;;1.27;;
67363;SDS011;54250;45.572;38.086;2022-10-18T05:05:03;2.75;;;1.15;;
67363;SDS011;54250;45.572;38.086;2022-10-18T05:07:29;11.57;;;1.83;;
67363;SDS011;54250;45.572;38.086;2022-10-18T05:09:55;4.45;;;1.98;;
67363;SDS011;54250;45.572;38.086;2022-10-18T05:12:21;3.65;;;1.50;;
67363;SDS011;54250;45.572;38.086;2022-10-18T05:14:47;3.53;;;1.25;;
67363;SDS011;54250;45.572;38.086;2022-10-18T05:17:13;12.05;;;1.60;;
67363;SDS011;54250;45.572;38.086;2022-10-18T05:19:39;3.67;;;1.50;;
67363;SDS011;54250;45.572;38.086;2022-10-18T05:22:06;7.97;;;1.08;;
67363;SDS011;54250;45.572;38.086;2022-10-18T05:24:32;4.25;;;1.52;;
67363;SDS011;54250;45.572;38.086;2022-10-18T05:26:58;7.30;;;1.80;;
67363;SDS011;54250;45.572;38.086;2022-10-18T05:29:24;2.42;;;1.30;;
67363;SDS011;54250;45.572;38.086;2022-10-18T05:31:50;3.92;;;1.38;;
67363;SDS011;54250;45.572;38.086;2022-10-18T05:34:16;9.57;;;1.40;;
67363;SDS011;54250;45.572;38.086;2022-10-18T05:36:42;2.08;;;1.40;;
67363;SDS011;54250;45.572;38.086;2022-10-18T05:39:08;28.65;;;2.58;;
67363;SDS011;54250;45.572;38.086;2022-10-18T05:41:34;3.67;;;1.83;;
67363;SDS011;54250;45.572;38.086;2022-10-18T05:44:04;7.55;;;1.60;;
67363;SDS011;54250;45.572;38.086;2022-10-18T05:46:30;1.08;;;1.00;;
67363;SDS011;54250;45.572;38.086;2022-10-18T05:48:57;3.60;;;1.80;;
67363;SDS011;54250;45.572;38.086;2022-10-18T05:51:23;3.15;;;1.38;;
67363;SDS011;54250;45.572;38.086;2022-10-18T05:53:49;1.85;;;1.40;;
67363;SDS011;54250;45.572;38.086;2022-10-18T05:56:17;5.25;;;1.92;;
67363;SDS011;54250;45.572;38.086;2022-10-18T05:58:43;2.58;;;1.50;;
67363;SDS011;54250;45.572;38.086;2022-10-18T06:01:09;3.67;;;1.50;;
67363;SDS011;54250;45.572;38.086;2022-10-18T06:03:35;2.55;;;1.40;;
67363;SDS011;54250;45.572;38.086;2022-10-18T06:06:08;11.35;;;2.03;;
67363;SDS011;54250;45.572;38.086;2022-10-18T06:08:36;3.70;;;1.58;;
67363;SDS011;54250;45.572;38.086;2022-10-18T06:11:06;4.80;;;1.13;;
67363;SDS011;54250;45.572;38.086;2022-10-18T06:13:42;4.15;;;1.75;;
67363;SDS011;54250;45.572;38.086;2022-10-18T06:16:10;3.08;;;1.60;;
67363;SDS011;54250;45.572;38.086;2022-10-18T06:18:38;2.33;;;1.33;;
67363;SDS011;54250;45.572;38.086;2022-10-18T06:21:05;2.38;;;1.60;;
67363;SDS011;54250;45.572;38.086;2022-10-18T06:23:32;6.45;;;1.60;;
67363;SDS011;54250;45.572;38.086;2022-10-18T06:25:59;6.72;;;1.83;;
67363;SDS011;54250;45.572;38.086;2022-10-18T06:28:32;4.25;;;1.95;;
67363;SDS011;54250;45.572;38.086;2022-10-18T06:30:59;2.28;;;1.40;;
67363;SDS011;54250;45.572;38.086;2022-10-18T06:33:25;11.25;;;1.40;;
67363;SDS011;54250;45.572;38.086;2022-10-18T06:35:56;5.72;;;1.80;;
67363;SDS011;54250;45.572;38.086;2022-10-18T06:38:23;10.18;;;1.80;;
67363;SDS011;54250;45.572;38.086;2022-10-18T06:40:50;6.97;;;1.90;;
67363;SDS011;54250;45.572;38.086;2022-10-18T06:43:16;6.18;;;2.03;;
67363;SDS011;54250;45.572;38.086;2022-10-18T06:45:42;3.97;;;1.70;;
67363;SDS011;54250;45.572;38.086;2022-10-18T06:48:08;4.45;;;1.67;;
67363;SDS011;54250;45.572;38.086;2022-10-18T06:50:34;2.65;;;1.15;;
67363;SDS011;54250;45.572;38.086;2022-10-18T06:53:00;2.33;;;1.45;;
67363;SDS011;54250;45.572;38.086;2022-10-18T06:55:31;2.08;;;1.40;;
67363;SDS011;54250;45.572;38.086;2022-10-18T06:57:57;3.53;;;1.50;;
67363;SDS011;54250;45.572;38.086;2022-10-18T07:00:23;2.92;;;1.70;;
67363;SDS011;54250;45.572;38.086;2022-10-18T07:02:49;1.33;;;1.08;;
67363;SDS011;54250;45.572;38.086;2022-10-18T07:05:15;7.43;;;1.45;;
67363;SDS011;54250;45.572;38.086;2022-10-18T07:07:41;1.00;;;0.90;;
67363;SDS011;54250;45.572;38.086;2022-10-18T07:10:07;1.75;;;1.10;;
67363;SDS011;54250;45.572;38.086;2022-10-18T07:12:33;2.05;;;1.50;;
67363;SDS011;54250;45.572;38.086;2022-10-18T07:14:59;1.58;;;0.80;;
67363;SDS011;54250;45.572;38.086;2022-10-18T07:17:26;2.47;;;1.50;;
67363;SDS011;54250;45.572;38.086;2022-10-18T07:19:52;3.92;;;1.73;;
67363;SDS011;54250;45.572;38.086;2022-10-18T07:22:18;1.52;;;1.17;;
67363;SDS011;54250;45.572;38.086;2022-10-18T07:24:44;5.03;;;1.60;;
67363;SDS011;54250;45.572;38.086;2022-10-18T07:27:10;2.92;;;0.90;;
67363;SDS011;54250;45.572;38.086;2022-10-18T07:29:36;1.92;;;0.90;;
67363;SDS011;54250;45.572;38.086;2022-10-18T07:32:03;2.75;;;1.10;;
67363;SDS011;54250;45.572;38.086;2022-10-18T07:34:29;4.15;;;1.38;;
67363;SDS011;54250;45.572;38.086;2022-10-18T07:36:55;5.90;;;0.82;;
67363;SDS011;54250;45.572;38.086;2022-10-18T07:39:22;2.55;;;0.95;;
67363;SDS011;54250;45.572;38.086;2022-10-18T07:41:48;3.70;;;1.02;;
67363;SDS011;54250;45.572;38.086;2022-10-18T07:44:14;0.93;;;0.57;;
67363;SDS011;54250;45.572;38.086;2022-10-18T07:46:40;3.63;;;1.40;;
67363;SDS011;54250;45.572;38.086;2022-10-18T07:49:06;2.28;;;1.20;;
67363;SDS011;54250;45.572;38.086;2022-10-18T07:51:32;3.53;;;1.40;;
67363;SDS011;54250;45.572;38.086;2022-10-18T07:53:59;1.83;;;1.05;;
67363;SDS011;54250;45.572;38.086;2022-10-18T07:56:25;2.58;;;0.95;;
67363;SDS011;54250;45.572;38.086;2022-10-18T07:58:51;2.25;;;1.27;;
67363;SDS011;54250;45.572;38.086;2022-10-18T08:01:22;9.75;;;1.25;;
67363;SDS011;54250;45.572;38.086;2022-10-18T08:03:49;3.50;;;2.05;;
67363;SDS011;54250;45.572;38.086;2022-10-18T08:06:16;10.63;;;2.00;;
67363;SDS011;54250;45.572;38.086;2022-10-18T08:08:43;3.45;;;1.67;;
67363;SDS011;54250;45.572;38.086;2022-10-18T08:11:12;1.17;;;0.98;;
67363;SDS011;54250;45.572;38.086;2022-10-18T08:13:41;2.00;;;1.33;;
67363;SDS011;54250;45.572;38.086;2022-10-18T08:16:08;2.78;;;1.45;;
67363;SDS011;54250;45.572;38.086;2022-10-18T08:18:36;3.08;;;1.17;;
67363;SDS011;54250;45.572;38.086;2022-10-18T08:21:03;1.77;;;0.80;;
67363;SDS011;54250;45.572;38.086;2022-10-18T08:23:31;1.88;;;1.05;;
67363;SDS011;54250;45.572;38.086;2022-10-18T08:26:02;1.80;;;0.90;;
67363;SDS011;54250;45.572;38.086;2022-10-18T08:28:29;1.42;;;0.90;;
67363;SDS011;54250;45.572;38.086;2022-10-18T08:30:55;1.85;;;0.90;;
67363;SDS011;54250;45.572;38.086;2022-10-18T08:33:22;3.97;;;1.42;;
67363;SDS011;54250;45.572;38.086;2022-10-18T08:35:58;5.55;;;1.00;;
67363;SDS011;54250;45.572;38.086;2022-10-18T08:38:27;2.60;;;0.73;;
67363;SDS011;54250;45.572;38.086;2022-10-18T08:40:55;2.45;;;0.93;;
67363;SDS011;54250;45.572;38.086;2022-10-18T08:43:30;4.82;;;1.73;;
67363;SDS011;54250;45.572;38.086;2022-10-18T08:46:02;0.82;;;0.77;;
67363;SDS011;54250;45.572;38.086;2022-10-18T08:48:31;3.15;;;2.17;;
67363;SDS011;54250;45.572;38.086;2022-10-18T08:51:04;8.43;;;3.15;;
67363;SDS011;54250;45.572;38.086;2022-10-18T08:53:50;5.20;;;1.90;;
67363;SDS011;54250;45.572;38.086;2022-10-18T08:56:32;3.05;;;1.17;;
67363;SDS011;54250;45.572;38.086;2022-10-18T08:59:00;4.57;;;1.90;;
67363;SDS011;54250;45.572;38.086;2022-10-18T09:01:36;3.55;;;1.10;;
67363;SDS011;54250;45.572;38.086;2022-10-18T09:12:12;5.10;;;0.90;;
67363;SDS011;54250;45.572;38.086;2022-10-18T09:14:56;1.98;;;1.13;;
67363;SDS011;54250;45.572;38.086;2022-10-18T09:23:43;2.25;;;1.02;;
67363;SDS011;54250;45.572;38.086;2022-10-18T09:26:14;1.98;;;1.25;;
67363;SDS011;54250;45.572;38.086;2022-10-18T09:31:44;1.17;;;0.80;;
67363;SDS011;54250;45.572;38.086;2022-10-18T09:36:50;3.17;;;1.65;;
67363;SDS011;54250;45.572;38.086;2022-10-18T09:39:24;7.10;;;2.40;;
67363;SDS011;54250;45.572;38.086;2022-10-18T09:44:45;1.48;;;0.93;;
67363;SDS011;54250;45.572;38.086;2022-10-18T09:47:18;3.63;;;1.15;;
67363;SDS011;54250;45.572;38.086;2022-10-18T09:50:28;3.47;;;1.08;;
67363;SDS011;54250;45.572;38.086;2022-10-18T09:56:01;8.70;;;0.98;;
67363;SDS011;54250;45.572;38.086;2022-10-18T09:58:46;1.17;;;0.73;;
67363;SDS011;54250;45.572;38.086;2022-10-18T10:01:19;1.42;;;0.93;;
67363;SDS011;54250;45.572;38.086;2022-10-18T10:03:47;7.50;;;0.80;;
67363;SDS011;54250;45.572;38.086;2022-10-18T10:08:53;1.85;;;0.98;;
67363;SDS011;54250;45.572;38.086;2022-10-18T10:13:58;5.93;;;1.05;;
67363;SDS011;54250;45.572;38.086;2022-10-18T10:19:18;1.05;;;0.70;;
67363;SDS011;54250;45.572;38.086;2022-10-18T10:21:48;1.92;;;0.88;;
67363;SDS011;54250;45.572;38.086;2022-10-18T10:24:22;1.15;;;0.65;;
67363;SDS011;54250;45.572;38.086;2022-10-18T10:27:14;4.40;;;0.95;;
67363;SDS011;54250;45.572;38.086;2022-10-18T10:32:13;0.95;;;0.70;;
67363;SDS011;54250;45.572;38.086;2022-10-18T10:34:41;2.63;;;0.98;;
67363;SDS011;54250;45.572;38.086;2022-10-18T10:40:03;0.40;;;0.40;;
67363;SDS011;54250;45.572;38.086;2022-10-18T10:42:53;2.28;;;1.20;;
67363;SDS011;54250;45.572;38.086;2022-10-18T10:45:20;1.15;;;0.77;;
67363;SDS011;54250;45.572;38.086;2022-10-18T10:47:48;0.93;;;0.75;;
67363;SDS011;54250;45.572;38.086;2022-10-18T10:50:21;0.30;;;0.30;;
67363;SDS011;54250;45.572;38.086;2022-10-18T10:52:50;1.48;;;1.10;;
67363;SDS011;54250;45.572;38.086;2022-10-18T10:55:17;1.17;;;0.98;;
67363;SDS011;54250;45.572;38.086;2022-10-18T10:57:48;1.98;;;0.85;;
67363;SDS011;54250;45.572;38.086;2022-10-18T11:00:34;2.28;;;0.60;;
67363;SDS011;54250;45.572;38.086;2022-10-18T11:03:17;1.10;;;0.70;;
67363;SDS011;54250;45.572;38.086;2022-10-18T11:05:48;1.55;;;0.70;;
67363;SDS011;54250;45.572;38.086;2022-10-18T11:08:21;0.73;;;0.63;;
67363;SDS011;54250;45.572;38.086;2022-10-18T11:11:04;1.98;;;0.60;;
67363;SDS011;54250;45.572;38.086;2022-10-18T11:13:55;1.55;;;0.80;;
67363;SDS011;54250;45.572;38.086;2022-10-18T11:16:27;1.08;;;0.47;;
67363;SDS011;54250;45.572;38.086;2022-10-18T11:18:57;0.90;;;0.70;;
67363;SDS011;54250;45.572;38.086;2022-10-18T11:21:28;0.90;;;0.57;;
67363;SDS011;54250;45.572;38.086;2022-10-18T11:23:56;3.33;;;0.73;;
67363;SDS011;54250;45.572;38.086;2022-10-18T11:26:29;1.15;;;0.93;;
67363;SDS011;54250;45.572;38.086;2022-10-18T11:37:30;2.70;;;0.75;;
67363;SDS011;54250;45.572;38.086;2022-10-18T11:42:57;2.90;;;1.00;;
67363;SDS011;54250;45.572;38.086;2022-10-18T11:45:46;3.22;;;0.98;;
67363;SDS011;54250;45.572;38.086;2022-10-18T11:56:38;9.82;;;2.55;;
67363;SDS011;54250;45.572;38.086;2022-10-18T11:59:28;6.03;;;3.65;;
67363;SDS011;54250;45.572;38.086;2022-10-18T12:02:44;11.63;;;5.32;;
67363;SDS011;54250;45.572;38.086;2022-10-18T12:05:12;8.80;;;4.18;;
67363;SDS011;54250;45.572;38.086;2022-10-18T12:07:44;7.20;;;1.75;;
67363;SDS011;54250;45.572;38.086;2022-10-18T12:10:17;22.23;;;12.82;;
67363;SDS011;54250;45.572;38.086;2022-10-18T12:12:51;12.85;;;3.90;;
67363;SDS011;54250;45.572;38.086;2022-10-18T12:15:23;16.38;;;3.00;;
67363;SDS011;54250;45.572;38.086;2022-10-18T12:17:55;8.02;;;1.95;;
67363;SDS011;54250;45.572;38.086;2022-10-18T12:22:59;10.43;;;2.65;;
67363;SDS011;54250;45.572;38.086;2022-10-18T12:25:28;4.28;;;2.25;;
67363;SDS011;54250;45.572;38.086;2022-10-18T12:39:47;6.30;;;1.70;;
67363;SDS011;54250;45.572;38.086;2022-10-18T12:42:27;6.10;;;2.20;;
67363;SDS011;54250;45.572;38.086;2022-10-18T12:47:58;5.72;;;2.15;;
67363;SDS011;54250;45.572;38.086;2022-10-18T12:50:39;7.43;;;2.92;;
67363;SDS011;54250;45.572;38.086;2022-10-18T12:53:18;8.23;;;3.65;;
67363;SDS011;54250;45.572;38.086;2022-10-18T12:55:49;3.60;;;1.90;;
67363;SDS011;54250;45.572;38.086;2022-10-18T13:16:29;5.20;;;1.30;;
67363;SDS011;54250;45.572;38.086;2022-10-18T13:27:24;1.38;;;0.95;;
67363;SDS011;54250;45.572;38.086;2022-10-18T13:41:08;2.30;;;1.30;;
67363;SDS011;54250;45.572;38.086;2022-10-18T13:44:21;5.32;;;1.60;;
67363;SDS011;54250;45.572;38.086;2022-10-18T13:54:31;1.77;;;1.10;;
67363;SDS011;54250;45.572;38.086;2022-10-18T13:57:23;4.10;;;1.73;;
67363;SDS011;54250;45.572;38.086;2022-10-18T14:08:34;7.55;;;1.30;;
67363;SDS011;54250;45.572;38.086;2022-10-18T14:11:11;4.55;;;2.35;;
67363;SDS011;54250;45.572;38.086;2022-10-18T14:14:07;5.55;;;2.15;;
67363;SDS011;54250;45.572;38.086;2022-10-18T14:24:44;16.20;;;3.95;;
67363;SDS011;54250;45.572;38.086;2022-10-18T14:29:44;22.17;;;6.45;;
67363;SDS011;54250;45.572;38.086;2022-10-18T14:32:32;17.85;;;5.07;;
67363;SDS011;54250;45.572;38.086;2022-10-18T14:34:57;14.13;;;3.70;;
67363;SDS011;54250;45.572;38.086;2022-10-18T14:39:49;15.57;;;3.92;;
67363;SDS011;54250;45.572;38.086;2022-10-18T14:42:20;17.20;;;3.63;;
67363;SDS011;54250;45.572;38.086;2022-10-18T14:44:47;24.33;;;4.47;;
67363;SDS011;54250;45.572;38.086;2022-10-18T14:49:46;30.02;;;10.93;;
67363;SDS011;54250;45.572;38.086;2022-10-18T14:52:15;18.38;;;7.80;;
67363;SDS011;54250;45.572;38.086;2022-10-18T14:54:43;8.75;;;3.58;;
67363;SDS011;54250;45.572;38.086;2022-10-18T14:57:17;10.77;;;2.92;;
67363;SDS011;54250;45.572;38.086;2022-10-18T14:59:47;9.23;;;5.07;;
67363;SDS011;54250;45.572;38.086;2022-10-18T15:02:18;55.55;;;15.68;;
67363;SDS011;54250;45.572;38.086;2022-10-18T15:04:58;45.70;;;17.10;;
67363;SDS011;54250;45.572;38.086;2022-10-18T15:07:32;76.13;;;22.25;;
67363;SDS011;54250;45.572;38.086;2022-10-18T15:09:59;69.88;;;23.80;;
67363;SDS011;54250;45.572;38.086;2022-10-18T15:12:27;52.67;;;17.52;;
67363;SDS011;54250;45.572;38.086;2022-10-18T15:14:54;33.25;;;11.10;;
67363;SDS011;54250;45.572;38.086;2022-10-18T15:22:22;38.25;;;8.57;;
67363;SDS011;54250;45.572;38.086;2022-10-18T15:27:52;29.73;;;8.80;;
67363;SDS011;54250;45.572;38.086;2022-10-18T15:32:58;36.05;;;10.65;;
67363;SDS011;54250;45.572;38.086;2022-10-18T15:35:32;44.22;;;15.73;;
67363;SDS011;54250;45.572;38.086;2022-10-18T15:40:49;37.42;;;13.45;;
67363;SDS011;54250;45.572;38.086;2022-10-18T15:45:48;16.88;;;6.07;;
67363;SDS011;54250;45.572;38.086;2022-10-18T15:48:25;9.53;;;3.50;;
67363;SDS011;54250;45.572;38.086;2022-10-18T15:50:55;9.38;;;4.20;;
67363;SDS011;54250;45.572;38.086;2022-10-18T15:56:26;15.15;;;5.93;;
67363;SDS011;54250;45.572;38.086;2022-10-18T15:58:55;62.53;;;20.38;;
67363;SDS011;54250;45.572;38.086;2022-10-18T16:01:24;146.00;;;54.47;;
67363;SDS011;54250;45.572;38.086;2022-10-18T16:03:57;98.45;;;36.50;;
67363;SDS011;54250;45.572;38.086;2022-10-18T16:06:25;69.15;;;23.27;;
67363;SDS011;54250;45.572;38.086;2022-10-18T16:08:51;39.25;;;12.40;;
67363;SDS011;54250;45.572;38.086;2022-10-18T16:11:20;71.18;;;25.85;;
67363;SDS011;54250;45.572;38.086;2022-10-18T16:13:47;192.10;;;69.65;;
67363;SDS011;54250;45.572;38.086;2022-10-18T16:16:18;150.27;;;47.00;;
67363;SDS011;54250;45.572;38.086;2022-10-18T16:18:50;118.00;;;40.70;;
67363;SDS011;54250;45.572;38.086;2022-10-18T16:21:37;89.95;;;31.38;;
67363;SDS011;54250;45.572;38.086;2022-10-18T16:24:03;18.40;;;8.70;;
67363;SDS011;54250;45.572;38.086;2022-10-18T16:26:30;11.75;;;5.55;;
67363;SDS011;54250;45.572;38.086;2022-10-18T16:28:56;7.82;;;4.22;;
67363;SDS011;54250;45.572;38.086;2022-10-18T16:31:24;14.38;;;6.63;;
67363;SDS011;54250;45.572;38.086;2022-10-18T16:33:55;14.77;;;7.15;;
67363;SDS011;54250;45.572;38.086;2022-10-18T16:36:24;22.15;;;7.47;;
67363;SDS011;54250;45.572;38.086;2022-10-18T16:38:55;15.75;;;7.93;;
67363;SDS011;54250;45.572;38.086;2022-10-18T16:41:23;25.25;;;7.78;;
67363;SDS011;54250;45.572;38.086;2022-10-18T16:43:49;18.15;;;7.88;;
67363;SDS011;54250;45.572;38.086;2022-10-18T16:46:16;18.52;;;6.72;;
67363;SDS011;54250;45.572;38.086;2022-10-18T16:48:45;18.15;;;7.85;;
67363;SDS011;54250;45.572;38.086;2022-10-18T16:51:13;22.42;;;9.07;;
67363;SDS011;54250;45.572;38.086;2022-10-18T16:53:39;32.95;;;11.00;;
67363;SDS011;54250;45.572;38.086;2022-10-18T16:56:10;27.88;;;12.10;;
67363;SDS011;54250;45.572;38.086;2022-10-18T16:58:42;45.22;;;13.02;;
67363;SDS011;54250;45.572;38.086;2022-10-18T17:01:09;26.42;;;11.30;;
67363;SDS011;54250;45.572;38.086;2022-10-18T17:03:39;19.27;;;9.35;;
67363;SDS011;54250;45.572;38.086;2022-10-18T17:06:08;29.10;;;8.52;;
67363;SDS011;54250;45.572;38.086;2022-10-18T17:08:39;23.48;;;8.25;;
67363;SDS011;54250;45.572;38.086;2022-10-18T17:11:05;30.75;;;6.32;;
67363;SDS011;54250;45.572;38.086;2022-10-18T17:13:31;13.43;;;7.18;;
67363;SDS011;54250;45.572;38.086;2022-10-18T17:15:58;35.97;;;6.93;;
67363;SDS011;54250;45.572;38.086;2022-10-18T17:18:24;23.45;;;7.18;;
67363;SDS011;54250;45.572;38.086;2022-10-18T17:20:51;29.85;;;8.00;;
67363;SDS011;54250;45.572;38.086;2022-10-18T17:23:18;20.63;;;8.45;;
67363;SDS011;54250;45.572;38.086;2022-10-18T17:25:44;18.08;;;6.45;;
67363;SDS011;54250;45.572;38.086;2022-10-18T17:28:13;26.90;;;6.30;;
67363;SDS011;54250;45.572;38.086;2022-10-18T17:30:40;22.65;;;6.78;;
67363;SDS011;54250;45.572;38.086;2022-10-18T17:33:08;33.95;;;11.55;;
67363;SDS011;54250;45.572;38.086;2022-10-18T17:35:34;20.25;;;8.73;;
67363;SDS011;54250;45.572;38.086;2022-10-18T17:38:01;15.05;;;7.20;;
67363;SDS011;54250;45.572;38.086;2022-10-18T17:40:29;31.70;;;6.93;;
67363;SDS011;54250;45.572;38.086;2022-10-18T17:42:59;27.25;;;7.30;;
67363;SDS011;54250;45.572;38.086;2022-10-18T17:45:25;20.15;;;8.43;;
67363;SDS011;54250;45.572;38.086;2022-10-18T17:47:51;27.60;;;8.43;;
67363;SDS011;54250;45.572;38.086;2022-10-18T17:50:19;25.77;;;9.40;;
67363;SDS011;54250;45.572;38.086;2022-10-18T17:52:46;21.70;;;9.45;;
67363;SDS011;54250;45.572;38.086;2022-10-18T17:55:13;40.40;;;9.45;;
67363;SDS011;54250;45.572;38.086;2022-10-18T17:57:40;28.60;;;9.73;;